Time;durP1;ratioP1;P1;durP2;ratioP2;P2;SDS_P1;SDS_P2;PMS_P1;PMS_P2;Temp;Humidity;BMP_temperature;BMP_pressure;BME280_temperature;BME280_humidity;BME280_pressure;Samples;Min_cycle;Max_cycle;Signal;HPM_P1;HPM_P2
2022/01/22 00:00:47;;;;;;;108.03;55.83;;;;;;;;;;5017346;28;20046;-63
2022/01/22 00:03:13;;;;;;;112.00;55.97;;;;;;;;;;5008151;28;20030;-63
2022/01/22 00:05:39;;;;;;;115.00;56.77;;;;;;;;;;5009337;28;20049;-62
2022/01/22 00:08:05;;;;;;;121.30;59.27;;;;;;;;;;5009911;28;20049;-62
2022/01/22 00:10:32;;;;;;;111.90;58.50;;;;;;;;;;4989141;28;20459;-62
2022/01/22 00:15:29;;;;;;;121.07;57.93;;;;;;;;;;4990359;28;20088;-63
2022/01/22 00:17:55;;;;;;;110.40;58.87;;;;;;;;;;4992545;28;20037;-63
2022/01/22 00:20:22;;;;;;;110.60;57.90;;;;;;;;;;4989309;28;20396;-63
2022/01/22 00:22:49;;;;;;;122.60;60.77;;;;;;;;;;5003737;28;20049;-63
2022/01/22 00:25:16;;;;;;;124.40;60.63;;;;;;;;;;5007451;28;20069;-63
2022/01/22 00:28:05;;;;;;;125.40;62.10;;;;;;;;;;5007085;28;20053;-63
2022/01/22 00:30:32;;;;;;;114.87;59.07;;;;;;;;;;4990393;28;20101;-63
2022/01/22 00:32:58;;;;;;;122.93;62.00;;;;;;;;;;4988308;28;20203;-62
2022/01/22 00:35:24;;;;;;;126.53;61.50;;;;;;;;;;4995543;28;20472;-62
2022/01/22 00:37:51;;;;;;;111.20;57.50;;;;;;;;;;4993830;28;20046;-63
2022/01/22 00:40:18;;;;;;;117.83;58.57;;;;;;;;;;4991122;28;20100;-63
2022/01/22 00:42:45;;;;;;;110.03;56.77;;;;;;;;;;5006282;28;20049;-63
2022/01/22 00:45:11;;;;;;;106.60;56.93;;;;;;;;;;5001473;28;20117;-63
2022/01/22 00:47:37;;;;;;;104.07;55.97;;;;;;;;;;5008402;28;20042;-63
2022/01/22 00:50:04;;;;;;;107.33;57.23;;;;;;;;;;5011450;28;20490;-63
2022/01/22 00:52:30;;;;;;;105.07;55.20;;;;;;;;;;4982207;28;20046;-63
2022/01/22 00:54:56;;;;;;;103.83;54.87;;;;;;;;;;4991319;28;20031;-62
2022/01/22 00:57:23;;;;;;;103.27;55.20;;;;;;;;;;4993470;28;20046;-63
2022/01/22 00:59:55;;;;;;;101.40;54.57;;;;;;;;;;4990552;28;20046;-63
2022/01/22 01:02:21;;;;;;;103.93;54.17;;;;;;;;;;4993404;28;20046;-63
2022/01/22 01:04:47;;;;;;;102.27;52.40;;;;;;;;;;4989403;28;20125;-62
2022/01/22 01:07:13;;;;;;;106.77;56.20;;;;;;;;;;5001557;28;20096;-63
2022/01/22 01:09:40;;;;;;;104.10;54.70;;;;;;;;;;5008727;28;20072;-63
2022/01/22 01:12:09;;;;;;;103.97;55.33;;;;;;;;;;5006894;28;20141;-62
2022/01/22 01:14:42;;;;;;;101.40;52.73;;;;;;;;;;4995208;28;20044;-62
2022/01/22 01:17:45;;;;;;;111.80;55.00;;;;;;;;;;4998982;28;20388;-63
2022/01/22 01:36:05;;;;;;;103.50;54.67;;;;;;;;;;5004332;28;20042;-63
2022/01/22 01:38:37;;;;;;;103.43;55.40;;;;;;;;;;4996048;28;20389;-63
2022/01/22 01:41:12;;;;;;;103.23;54.23;;;;;;;;;;5007296;28;20034;-63
2022/01/22 01:43:38;;;;;;;101.57;52.65;;;;;;;;;;5000052;28;20444;-63
2022/01/22 01:46:04;;;;;;;105.40;54.93;;;;;;;;;;4990174;28;20420;-63
2022/01/22 01:48:37;;;;;;;100.20;51.00;;;;;;;;;;4992409;28;20046;-62
2022/01/22 01:51:24;;;;;;;95.83;51.17;;;;;;;;;;4991318;28;20057;-62
2022/01/22 01:59:21;;;;;;;99.82;53.92;;;;;;;;;;4991605;28;20173;-63
2022/01/22 02:01:47;;;;;;;105.27;53.37;;;;;;;;;;5006489;28;20491;-62
2022/01/22 02:04:14;;;;;;;99.83;51.60;;;;;;;;;;5007982;28;20037;-62
2022/01/22 02:06:41;;;;;;;101.33;52.43;;;;;;;;;;5006882;28;20112;-62
2022/01/22 02:09:09;;;;;;;103.80;53.80;;;;;;;;;;5007897;28;20045;-62
2022/01/22 02:11:36;;;;;;;98.13;50.70;;;;;;;;;;5006975;28;20057;-63
2022/01/22 02:24:45;;;;;;;;;;;;;;;;;;4994010;28;20100;-63
2022/01/22 02:27:11;;;;;;;98.60;49.67;;;;;;;;;;5005642;28;19921;-62
2022/01/22 02:29:37;;;;;;;98.53;50.83;;;;;;;;;;4989847;28;20480;-62
2022/01/22 02:32:41;;;;;;;102.80;53.07;;;;;;;;;;4983043;28;20476;-62
2022/01/22 02:34:53;;;;;;;104.70;53.07;;;;;;;;;;4992947;28;20073;-62
2022/01/22 02:37:21;;;;;;;101.27;50.17;;;;;;;;;;4991543;28;20053;-63
2022/01/22 02:40:02;;;;;;;97.57;50.43;;;;;;;;;;5012682;28;20503;-62
2022/01/22 02:42:32;;;;;;;103.57;50.97;;;;;;;;;;5009122;28;20042;-62
2022/01/22 02:44:58;;;;;;;106.10;51.97;;;;;;;;;;4987688;28;20389;-62
2022/01/22 02:47:24;;;;;;;102.57;51.03;;;;;;;;;;5000862;28;20061;-63
2022/01/22 02:49:50;;;;;;;103.67;51.90;;;;;;;;;;4997741;28;20046;-62
2022/01/22 02:52:20;;;;;;;102.27;51.97;;;;;;;;;;5002193;28;20376;-62
2022/01/22 02:55:07;;;;;;;97.50;49.77;;;;;;;;;;5034296;28;20038;-63
2022/01/22 02:57:34;;;;;;;104.20;51.67;;;;;;;;;;4998766;28;20070;-62
2022/01/22 03:00:00;;;;;;;98.97;49.90;;;;;;;;;;5000386;28;20046;-62
2022/01/22 03:02:27;;;;;;;102.73;51.07;;;;;;;;;;4995250;28;20045;-62
2022/01/22 03:04:53;;;;;;;100.27;50.13;;;;;;;;;;5009126;28;20045;-62
2022/01/22 03:07:19;;;;;;;99.53;48.63;;;;;;;;;;4994206;28;20404;-62
2022/01/22 03:09:48;;;;;;;96.20;49.00;;;;;;;;;;5000777;28;20053;-62
2022/01/22 03:20:32;;;;;;;99.53;50.85;;;;;;;;;;5001337;28;20109;-62
2022/01/22 03:28:03;;;;;;;108.15;54.75;;;;;;;;;;4989892;28;20072;-63
2022/01/22 03:30:29;;;;;;;109.93;56.07;;;;;;;;;;4996034;28;20034;-62
2022/01/22 03:32:56;;;;;;;114.67;56.97;;;;;;;;;;4988736;28;20038;-62
2022/01/22 03:37:51;;;;;;;114.70;57.93;;;;;;;;;;4996493;28;20408;-62
2022/01/22 03:40:18;;;;;;;123.50;59.17;;;;;;;;;;5010745;28;20034;-62
2022/01/22 03:42:44;;;;;;;118.10;59.07;;;;;;;;;;4987250;28;20412;-62
2022/01/22 03:45:11;;;;;;;116.73;59.10;;;;;;;;;;4990169;28;20058;-62
2022/01/22 03:47:37;;;;;;;124.60;59.40;;;;;;;;;;4990761;28;20209;-62
2022/01/22 03:50:04;;;;;;;121.03;57.33;;;;;;;;;;5010223;28;20045;-62
2022/01/22 03:52:30;;;;;;;120.63;56.23;;;;;;;;;;5032575;28;20460;-61
2022/01/22 03:54:56;;;;;;;123.30;58.67;;;;;;;;;;5002088;28;20066;-61
2022/01/22 03:57:23;;;;;;;129.10;59.40;;;;;;;;;;5000902;28;20121;-62
2022/01/22 03:59:51;;;;;;;124.83;56.87;;;;;;;;;;5011336;28;20052;-62
2022/01/22 04:04:47;;;;;;;135.67;63.67;;;;;;;;;;5009004;28;20049;-62
2022/01/22 04:09:46;;;;;;;145.07;62.93;;;;;;;;;;4978055;28;20407;-62
2022/01/22 04:12:15;;;;;;;137.30;61.37;;;;;;;;;;5009342;28;20072;-62
2022/01/22 04:14:54;;;;;;;139.67;61.33;;;;;;;;;;5018806;28;20128;-61
2022/01/22 04:17:37;;;;;;;141.30;61.73;;;;;;;;;;5008508;28;20042;-61
2022/01/22 04:25:37;;;;;;;142.10;61.85;;;;;;;;;;4988742;28;20399;-62
2022/01/22 04:28:03;;;;;;;143.10;63.43;;;;;;;;;;4996791;28;20050;-62
2022/01/22 04:30:29;;;;;;;144.03;60.70;;;;;;;;;;5004207;28;20038;-61
2022/01/22 04:32:56;;;;;;;145.23;62.43;;;;;;;;;;5003077;28;20030;-61
2022/01/22 04:35:22;;;;;;;150.70;64.87;;;;;;;;;;4989795;28;20050;-62
2022/01/22 04:37:49;;;;;;;141.33;60.83;;;;;;;;;;4998404;28;20076;-62
2022/01/22 04:40:15;;;;;;;127.53;58.17;;;;;;;;;;5007341;28;20048;-62
2022/01/22 04:42:42;;;;;;;136.00;59.00;;;;;;;;;;4989125;28;20107;-62
2022/01/22 04:48:28;;;;;;;126.40;56.43;;;;;;;;;;4985099;28;20129;-62
2022/01/22 04:56:34;;;;;;;133.95;59.13;;;;;;;;;;4990901;28;20073;-63
2022/01/22 04:59:01;;;;;;;132.03;58.80;;;;;;;;;;4996588;28;20058;-62
2022/01/22 05:01:27;;;;;;;140.37;59.90;;;;;;;;;;4991711;28;20484;-62
2022/01/22 05:03:54;;;;;;;139.63;58.10;;;;;;;;;;4999580;28;20033;-62
2022/01/22 05:06:20;;;;;;;135.13;58.80;;;;;;;;;;5007673;28;20496;-62
2022/01/22 05:08:46;;;;;;;130.93;57.73;;;;;;;;;;4993623;28;20066;-62
2022/01/22 05:11:12;;;;;;;134.93;59.43;;;;;;;;;;5000271;28;20038;-62
2022/01/22 05:13:39;;;;;;;127.77;56.97;;;;;;;;;;5006828;28;20547;-62
2022/01/22 05:16:05;;;;;;;130.33;56.23;;;;;;;;;;5003974;28;20038;-62
2022/01/22 05:18:36;;;;;;;134.63;57.23;;;;;;;;;;5008020;28;20091;-62
2022/01/22 05:21:09;;;;;;;127.73;57.83;;;;;;;;;;5002579;28;20038;-62
2022/01/22 05:23:36;;;;;;;126.30;55.23;;;;;;;;;;5007371;28;20038;-62
2022/01/22 05:26:05;;;;;;;126.87;56.93;;;;;;;;;;5007803;28;20080;-62
2022/01/22 05:39:09;;;;;;;112.17;52.40;;;;;;;;;;4994852;28;20053;-62
2022/01/22 05:41:35;;;;;;;124.43;53.87;;;;;;;;;;4989805;28;20078;-61
2022/01/22 05:44:01;;;;;;;124.57;55.50;;;;;;;;;;5001292;28;20052;-62
2022/01/22 05:46:27;;;;;;;126.10;54.07;;;;;;;;;;5001651;28;20646;-62
2022/01/22 05:48:53;;;;;;;123.70;53.13;;;;;;;;;;5004101;28;20081;-62
2022/01/22 05:51:19;;;;;;;128.30;54.73;;;;;;;;;;5008140;28;20054;-62
2022/01/22 05:59:59;;;;;;;97.10;41.63;;;;;;;;;;5004754;28;20049;-62
2022/01/22 06:02:18;;;;;;;117.97;50.37;;;;;;;;;;5007866;28;20037;-62
2022/01/22 06:04:45;;;;;;;124.70;52.70;;;;;;;;;;5008907;28;20064;-62
2022/01/22 06:07:12;;;;;;;123.53;52.63;;;;;;;;;;5006374;28;20050;-62
2022/01/22 06:09:50;;;;;;;119.33;55.20;;;;;;;;;;5003367;28;20045;-62
2022/01/22 06:12:27;;;;;;;126.03;53.17;;;;;;;;;;5005729;28;20120;-62
2022/01/22 06:14:53;;;;;;;111.23;49.80;;;;;;;;;;5006959;28;20037;-62
2022/01/22 06:17:19;;;;;;;119.00;53.17;;;;;;;;;;5006690;28;20042;-62
2022/01/22 06:19:45;;;;;;;124.37;50.43;;;;;;;;;;5009097;28;20526;-62
2022/01/22 06:22:11;;;;;;;113.03;49.07;;;;;;;;;;5010055;28;20209;-62
2022/01/22 06:24:37;;;;;;;120.13;53.37;;;;;;;;;;5011339;28;20097;-62
2022/01/22 06:27:03;;;;;;;122.80;52.70;;;;;;;;;;5008961;28;20471;-62
2022/01/22 06:29:29;;;;;;;127.30;53.47;;;;;;;;;;5011148;28;20510;-62
2022/01/22 06:31:55;;;;;;;127.20;50.50;;;;;;;;;;4991906;28;20065;-62
2022/01/22 06:34:22;;;;;;;119.23;50.67;;;;;;;;;;4990862;28;20513;-64
2022/01/22 06:36:48;;;;;;;113.60;47.87;;;;;;;;;;5035630;28;20034;-61
2022/01/22 06:39:16;;;;;;;108.13;47.90;;;;;;;;;;5001032;28;20058;-62
2022/01/22 06:41:45;;;;;;;106.43;46.70;;;;;;;;;;5012881;28;20092;-61
2022/01/22 06:44:16;;;;;;;112.53;49.57;;;;;;;;;;5003420;28;20042;-62
2022/01/22 06:46:43;;;;;;;115.53;50.80;;;;;;;;;;5007899;28;20104;-62
2022/01/22 06:49:09;;;;;;;116.67;50.93;;;;;;;;;;5010498;28;20080;-62
2022/01/22 06:51:35;;;;;;;118.70;50.60;;;;;;;;;;5010702;28;20061;-62
2022/01/22 06:54:01;;;;;;;122.90;52.60;;;;;;;;;;5009392;28;20041;-62
2022/01/22 06:56:29;;;;;;;120.77;52.37;;;;;;;;;;5030327;28;20484;-63
2022/01/22 06:58:56;;;;;;;119.43;51.67;;;;;;;;;;4994744;28;20106;-63
2022/01/22 07:01:22;;;;;;;130.10;54.50;;;;;;;;;;4993964;28;20502;-62
2022/01/22 07:03:48;;;;;;;131.27;54.47;;;;;;;;;;5003021;28;20136;-63
2022/01/22 07:06:14;;;;;;;121.80;55.27;;;;;;;;;;5040841;28;20533;-63
2022/01/22 07:08:40;;;;;;;124.30;53.43;;;;;;;;;;5002212;28;20129;-63
2022/01/22 07:11:06;;;;;;;122.00;53.03;;;;;;;;;;5008214;28;20061;-63
2022/01/22 07:13:33;;;;;;;111.43;49.37;;;;;;;;;;5007497;28;20038;-63
2022/01/22 07:15:59;;;;;;;99.67;48.87;;;;;;;;;;5010127;28;20053;-63
2022/01/22 07:18:25;;;;;;;115.67;49.10;;;;;;;;;;5008836;28;20042;-63
2022/01/22 07:20:52;;;;;;;120.60;53.63;;;;;;;;;;5012224;28;20034;-63
2022/01/22 07:23:42;;;;;;;107.03;50.40;;;;;;;;;;5006878;28;20038;-63
2022/01/22 07:29:10;;;;;;;124.73;53.13;;;;;;;;;;5009514;28;20517;-63
2022/01/22 07:31:36;;;;;;;115.70;53.30;;;;;;;;;;5005988;28;20182;-63
2022/01/22 07:34:02;;;;;;;119.60;51.43;;;;;;;;;;5038622;28;20038;-63
2022/01/22 07:36:28;;;;;;;122.73;54.60;;;;;;;;;;4992823;28;20089;-63
2022/01/22 07:38:55;;;;;;;119.87;52.40;;;;;;;;;;5003915;28;20042;-63
2022/01/22 07:41:21;;;;;;;122.77;53.53;;;;;;;;;;5021340;28;20546;-63
2022/01/22 07:43:48;;;;;;;125.83;54.87;;;;;;;;;;4999466;28;20121;-63
2022/01/22 07:46:14;;;;;;;123.43;52.80;;;;;;;;;;4989183;28;20037;-63
2022/01/22 07:48:40;;;;;;;114.50;51.43;;;;;;;;;;5008504;28;20468;-63
2022/01/22 07:51:06;;;;;;;125.60;56.97;;;;;;;;;;5006728;28;20510;-63
2022/01/22 07:53:32;;;;;;;113.40;53.43;;;;;;;;;;4993629;28;20126;-63
2022/01/22 07:55:58;;;;;;;115.00;51.23;;;;;;;;;;4992498;28;20121;-63
2022/01/22 07:58:25;;;;;;;110.77;52.00;;;;;;;;;;4995783;28;20126;-63
2022/01/22 08:00:51;;;;;;;112.47;50.70;;;;;;;;;;4992826;28;20759;-63
2022/01/22 08:03:17;;;;;;;109.40;51.87;;;;;;;;;;4988108;28;20073;-63
2022/01/22 08:05:44;;;;;;;120.70;54.03;;;;;;;;;;5020710;28;20034;-63
2022/01/22 08:08:10;;;;;;;119.40;51.33;;;;;;;;;;4994699;28;20048;-63
2022/01/22 08:10:36;;;;;;;119.77;52.83;;;;;;;;;;5006445;28;20030;-63
2022/01/22 08:13:03;;;;;;;114.60;52.83;;;;;;;;;;5009335;28;20072;-63
2022/01/22 08:15:29;;;;;;;117.47;53.57;;;;;;;;;;5008365;28;20061;-63
2022/01/22 08:18:00;;;;;;;112.80;54.47;;;;;;;;;;5007626;28;20037;-62
2022/01/22 08:20:26;;;;;;;118.33;52.80;;;;;;;;;;5007054;28;20129;-63
2022/01/22 08:22:53;;;;;;;114.67;54.30;;;;;;;;;;5008630;28;20065;-62
2022/01/22 08:25:19;;;;;;;116.20;54.17;;;;;;;;;;5004818;28;20080;-63
2022/01/22 08:30:33;;;;;;;116.83;54.53;;;;;;;;;;4990064;28;20099;-62
2022/01/22 08:35:54;;;;;;;111.10;52.00;;;;;;;;;;5001404;28;20916;-62
2022/01/22 08:38:24;;;;;;;119.57;52.40;;;;;;;;;;4988449;28;20129;-62
2022/01/22 08:40:51;;;;;;;120.33;53.20;;;;;;;;;;4987423;28;20440;-62
2022/01/22 08:43:18;;;;;;;124.67;53.00;;;;;;;;;;4986131;28;20117;-62
2022/01/22 08:45:44;;;;;;;118.50;52.53;;;;;;;;;;4986609;28;20112;-62
2022/01/22 08:48:10;;;;;;;115.00;53.50;;;;;;;;;;5004844;28;20052;-62
2022/01/22 08:50:36;;;;;;;122.67;54.40;;;;;;;;;;5007347;28;20050;-62
2022/01/22 08:53:03;;;;;;;108.20;50.77;;;;;;;;;;4996531;28;20037;-62
2022/01/22 08:55:29;;;;;;;122.00;55.43;;;;;;;;;;5007059;28;20038;-62
2022/01/22 08:57:55;;;;;;;123.63;52.73;;;;;;;;;;5008948;28;20038;-62
2022/01/22 09:00:22;;;;;;;111.10;53.00;;;;;;;;;;5007521;28;20038;-62
2022/01/22 09:02:48;;;;;;;121.53;55.13;;;;;;;;;;5008536;28;20041;-62
2022/01/22 09:05:17;;;;;;;113.83;52.17;;;;;;;;;;5037516;28;20399;-62
2022/01/22 09:07:46;;;;;;;127.33;54.57;;;;;;;;;;5032346;28;20038;-62
2022/01/22 09:10:12;;;;;;;125.53;53.70;;;;;;;;;;5004560;28;20065;-62
2022/01/22 09:12:39;;;;;;;116.13;50.93;;;;;;;;;;5008367;28;20052;-62
2022/01/22 09:15:06;;;;;;;109.93;49.90;;;;;;;;;;4991872;28;20041;-62
2022/01/22 09:17:32;;;;;;;108.87;49.83;;;;;;;;;;5007433;28;20042;-62
2022/01/22 09:19:58;;;;;;;105.17;49.23;;;;;;;;;;5039107;28;20046;-62
2022/01/22 09:22:25;;;;;;;111.20;51.23;;;;;;;;;;5005825;28;20099;-62
2022/01/22 09:24:52;;;;;;;118.53;53.90;;;;;;;;;;5008259;28;20038;-62
2022/01/22 09:27:19;;;;;;;120.37;52.50;;;;;;;;;;4998187;28;20049;-62
2022/01/22 09:29:47;;;;;;;113.13;51.80;;;;;;;;;;5005184;28;20038;-62
2022/01/22 09:32:14;;;;;;;112.37;52.20;;;;;;;;;;5012447;28;20465;-62
2022/01/22 09:34:40;;;;;;;119.07;50.67;;;;;;;;;;5008517;28;20511;-62
2022/01/22 09:37:06;;;;;;;115.77;51.80;;;;;;;;;;5038446;28;20053;-62
2022/01/22 09:39:32;;;;;;;107.00;50.97;;;;;;;;;;4990530;28;20034;-62
2022/01/22 09:41:59;;;;;;;114.07;50.80;;;;;;;;;;4985219;28;20037;-62
2022/01/22 09:44:26;;;;;;;117.40;52.83;;;;;;;;;;4985919;28;20044;-62
2022/01/22 09:46:53;;;;;;;106.87;47.90;;;;;;;;;;5006591;28;20038;-62
2022/01/22 09:49:20;;;;;;;104.83;47.53;;;;;;;;;;5006775;28;22579;-62
2022/01/22 09:51:46;;;;;;;100.53;46.07;;;;;;;;;;5008707;28;20042;-62
2022/01/22 09:54:13;;;;;;;101.57;48.87;;;;;;;;;;5007093;28;20037;-62
2022/01/22 09:56:41;;;;;;;106.60;49.57;;;;;;;;;;5006793;28;20033;-62
2022/01/22 09:59:10;;;;;;;99.33;50.30;;;;;;;;;;5006106;28;20404;-62
2022/01/22 10:01:37;;;;;;;106.23;49.80;;;;;;;;;;5002526;28;20060;-62
2022/01/22 10:04:08;;;;;;;105.97;50.43;;;;;;;;;;4992922;28;20045;-62
2022/01/22 10:06:52;;;;;;;95.77;47.13;;;;;;;;;;5007464;28;20038;-62
2022/01/22 10:09:34;;;;;;;90.78;46.03;;;;;;;;;;4999346;28;20052;-61
2022/01/22 10:12:15;;;;;;;97.93;47.77;;;;;;;;;;4986999;28;20040;-61
2022/01/22 10:15:00;;;;;;;113.00;50.77;;;;;;;;;;4994330;28;20035;-62
2022/01/22 10:17:39;;;;;;;98.72;47.58;;;;;;;;;;4990134;28;20087;-62
2022/01/22 10:20:28;;;;;;;99.60;49.30;;;;;;;;;;4990014;28;20081;-62
2022/01/22 10:22:57;;;;;;;106.60;50.87;;;;;;;;;;4984858;28;20495;-61
2022/01/22 10:34:35;;;;;;;100.07;49.83;;;;;;;;;;4982647;28;20045;-62
2022/01/22 10:37:02;;;;;;;100.33;52.03;;;;;;;;;;4984724;28;20027;-61
2022/01/22 10:42:54;;;;;;;94.90;46.57;;;;;;;;;;4987633;28;20089;-64
2022/01/22 10:45:26;;;;;;;91.93;46.20;;;;;;;;;;5026462;28;20127;-60
2022/01/22 10:48:11;;;;;;;84.83;42.57;;;;;;;;;;4986975;28;20515;-66
2022/01/22 10:50:37;;;;;;;91.40;44.10;;;;;;;;;;4976096;28;20043;-60
2022/01/22 10:53:03;;;;;;;86.67;42.80;;;;;;;;;;4987299;28;20450;-63
2022/01/22 10:55:29;;;;;;;86.93;42.90;;;;;;;;;;5007880;28;20586;-65
2022/01/22 10:58:08;;;;;;;82.50;43.23;;;;;;;;;;5007817;28;20480;-64
2022/01/22 11:00:35;;;;;;;88.53;45.00;;;;;;;;;;4992231;28;20062;-64
2022/01/22 11:03:21;;;;;;;85.10;43.70;;;;;;;;;;4987189;28;20049;-63
2022/01/22 11:05:47;;;;;;;80.83;40.97;;;;;;;;;;5008233;28;20468;-63
2022/01/22 11:08:14;;;;;;;83.33;43.30;;;;;;;;;;4994456;28;20054;-62
2022/01/22 11:10:41;;;;;;;96.07;44.43;;;;;;;;;;5007950;28;20038;-61
2022/01/22 11:13:07;;;;;;;78.30;43.63;;;;;;;;;;5012437;28;20471;-61
2022/01/22 11:15:34;;;;;;;80.47;42.43;;;;;;;;;;5004743;28;20030;-60
2022/01/22 11:18:02;;;;;;;75.57;40.43;;;;;;;;;;4994329;28;20034;-61
2022/01/22 11:20:28;;;;;;;77.33;41.37;;;;;;;;;;5042112;28;20033;-61
2022/01/22 11:22:54;;;;;;;82.73;43.83;;;;;;;;;;5009540;28;20394;-61
2022/01/22 11:25:22;;;;;;;78.17;42.53;;;;;;;;;;5014531;28;20153;-62
2022/01/22 11:27:48;;;;;;;77.10;42.17;;;;;;;;;;5002822;28;20507;-61
2022/01/22 11:30:16;;;;;;;85.80;43.13;;;;;;;;;;4999727;28;20035;-62
2022/01/22 11:33:01;;;;;;;81.70;42.20;;;;;;;;;;5009361;28;20046;-62
2022/01/22 11:35:36;;;;;;;81.88;43.72;;;;;;;;;;5008985;28;20065;-62
2022/01/22 11:38:08;;;;;;;77.60;41.97;;;;;;;;;;4998774;28;20084;-61
2022/01/22 11:40:34;;;;;;;77.13;40.43;;;;;;;;;;5005690;28;20041;-61
2022/01/22 11:43:13;;;;;;;79.20;42.53;;;;;;;;;;5010554;28;20092;-61
2022/01/22 11:45:43;;;;;;;78.87;43.07;;;;;;;;;;5005217;28;20042;-61
2022/01/22 11:48:12;;;;;;;87.47;44.30;;;;;;;;;;5000673;28;20209;-61
2022/01/22 11:50:39;;;;;;;75.80;40.47;;;;;;;;;;5010238;28;20045;-62
2022/01/22 11:53:24;;;;;;;77.60;41.47;;;;;;;;;;5008825;28;20046;-61
2022/01/22 11:56:08;;;;;;;76.32;42.33;;;;;;;;;;5007680;28;20042;-62
2022/01/22 11:58:34;;;;;;;74.93;40.57;;;;;;;;;;5007084;28;20495;-61
2022/01/22 12:01:00;;;;;;;76.50;41.30;;;;;;;;;;5008472;28;20037;-61
2022/01/22 12:03:26;;;;;;;76.43;42.67;;;;;;;;;;5008752;28;20054;-61
2022/01/22 12:05:56;;;;;;;75.73;42.17;;;;;;;;;;5008623;28;20049;-61
2022/01/22 12:08:22;;;;;;;82.00;44.43;;;;;;;;;;5007550;28;20515;-61
2022/01/22 12:16:14;;;;;;;80.93;42.20;;;;;;;;;;5002388;28;20088;-61
2022/01/22 12:18:48;;;;;;;75.80;41.97;;;;;;;;;;5007718;28;20042;-60
2022/01/22 12:21:37;;;;;;;80.90;44.07;;;;;;;;;;5008235;28;20088;-60
2022/01/22 12:24:06;;;;;;;75.77;42.47;;;;;;;;;;5008141;28;20038;-60
2022/01/22 12:26:41;;;;;;;78.97;42.97;;;;;;;;;;5028948;28;20046;-60
2022/01/22 12:29:25;;;;;;;74.55;44.15;;;;;;;;;;4985220;28;20034;-60
2022/01/22 12:32:11;;;;;;;76.13;43.83;;;;;;;;;;4989498;28;20047;-60
2022/01/22 12:34:57;;;;;;;74.13;42.03;;;;;;;;;;5001114;28;20039;-60
2022/01/22 12:37:26;;;;;;;72.53;41.53;;;;;;;;;;4991645;28;20042;-61
2022/01/22 12:39:55;;;;;;;70.50;40.63;;;;;;;;;;4991381;28;20073;-61
2022/01/22 12:42:34;;;;;;;70.83;40.13;;;;;;;;;;5000540;28;20041;-61
2022/01/22 12:45:06;;;;;;;71.00;40.90;;;;;;;;;;4990201;28;20053;-61
2022/01/22 12:47:37;;;;;;;78.60;41.40;;;;;;;;;;5003655;28;20042;-60
2022/01/22 12:50:07;;;;;;;73.63;41.13;;;;;;;;;;4992062;28;20126;-61
2022/01/22 12:52:34;;;;;;;73.63;40.67;;;;;;;;;;4989747;28;20496;-61
2022/01/22 12:55:01;;;;;;;71.57;40.80;;;;;;;;;;4988122;28;20042;-61
2022/01/22 12:57:29;;;;;;;67.77;39.17;;;;;;;;;;4993999;28;20045;-61
2022/01/22 13:00:09;;;;;;;72.97;39.50;;;;;;;;;;5003036;28;20034;-61
2022/01/22 13:02:37;;;;;;;70.90;40.27;;;;;;;;;;4994645;28;20033;-61
2022/01/22 13:05:04;;;;;;;70.53;39.73;;;;;;;;;;4988371;28;20045;-60
2022/01/22 13:10:43;;;;;;;70.53;39.23;;;;;;;;;;4999235;28;20056;-61
2022/01/22 13:13:14;;;;;;;72.10;40.87;;;;;;;;;;5009418;28;20037;-61
2022/01/22 13:15:40;;;;;;;69.53;40.20;;;;;;;;;;5007025;28;20073;-61
2022/01/22 13:18:06;;;;;;;70.43;39.53;;;;;;;;;;5022193;28;20037;-60
2022/01/22 13:20:32;;;;;;;67.03;37.83;;;;;;;;;;5011409;28;20088;-60
2022/01/22 13:23:02;;;;;;;65.73;37.63;;;;;;;;;;5004009;28;20042;-61
2022/01/22 13:25:28;;;;;;;65.40;37.83;;;;;;;;;;4988082;28;20042;-61
2022/01/22 13:28:00;;;;;;;61.63;36.47;;;;;;;;;;5007661;28;20041;-61
2022/01/22 13:30:30;;;;;;;61.47;37.30;;;;;;;;;;4998449;28;20118;-61
2022/01/22 13:33:01;;;;;;;63.23;36.40;;;;;;;;;;5007969;28;20034;-61
2022/01/22 13:49:30;;;;;;;56.93;33.83;;;;;;;;;;4993930;28;20079;-61
2022/01/22 13:52:03;;;;;;;59.33;33.97;;;;;;;;;;4998427;28;20487;-62
2022/01/22 13:54:39;;;;;;;55.83;34.43;;;;;;;;;;5004715;28;20038;-61
2022/01/22 13:57:11;;;;;;;58.43;34.47;;;;;;;;;;4986815;28;20043;-62
2022/01/22 13:59:38;;;;;;;55.50;33.80;;;;;;;;;;4992455;28;20038;-61
2022/01/22 14:04:49;;;;;;;55.73;35.60;;;;;;;;;;4984167;28;20061;-61
2022/01/22 14:07:22;;;;;;;56.20;34.33;;;;;;;;;;5001425;28;20057;-61
2022/01/22 14:09:52;;;;;;;54.50;35.23;;;;;;;;;;4989999;28;20046;-62
2022/01/22 14:12:18;;;;;;;52.00;32.33;;;;;;;;;;5002615;28;20053;-61
2022/01/22 14:14:56;;;;;;;53.40;32.80;;;;;;;;;;5007157;28;20041;-61
2022/01/22 14:17:25;;;;;;;52.03;31.60;;;;;;;;;;5011244;28;20096;-61
2022/01/22 14:19:58;;;;;;;51.37;32.67;;;;;;;;;;5008383;28;20476;-62
2022/01/22 14:22:24;;;;;;;56.27;33.47;;;;;;;;;;5017914;28;20042;-61
2022/01/22 14:24:50;;;;;;;52.53;32.73;;;;;;;;;;4987784;28;20077;-61
2022/01/22 14:27:20;;;;;;;56.10;32.67;;;;;;;;;;4988876;28;20445;-62
2022/01/22 14:29:47;;;;;;;49.37;32.33;;;;;;;;;;5000827;28;20061;-61
2022/01/22 14:32:17;;;;;;;58.10;33.30;;;;;;;;;;4990641;28;20061;-62
2022/01/22 14:34:45;;;;;;;53.47;32.03;;;;;;;;;;4988897;28;20488;-61
2022/01/22 14:37:24;;;;;;;52.60;31.90;;;;;;;;;;5020490;28;20038;-62
2022/01/22 14:45:23;;;;;;;52.93;31.20;;;;;;;;;;5010908;28;20128;-62
2022/01/22 14:47:54;;;;;;;50.03;30.20;;;;;;;;;;4984892;28;20053;-62
2022/01/22 14:50:20;;;;;;;50.77;32.30;;;;;;;;;;4989872;28;20042;-61
2022/01/22 14:52:47;;;;;;;49.17;31.03;;;;;;;;;;4995065;28;20042;-62
2022/01/22 14:55:14;;;;;;;50.17;31.60;;;;;;;;;;4995096;28;20042;-61
2022/01/22 14:57:41;;;;;;;52.53;32.80;;;;;;;;;;4991396;28;20035;-61
2022/01/22 15:00:09;;;;;;;50.73;31.20;;;;;;;;;;4993594;28;20529;-61
2022/01/22 15:02:36;;;;;;;53.30;32.40;;;;;;;;;;4991007;28;20468;-61
2022/01/22 15:05:02;;;;;;;53.37;33.63;;;;;;;;;;4999635;28;20038;-61
2022/01/22 15:07:28;;;;;;;51.67;31.37;;;;;;;;;;4995463;28;20038;-61
2022/01/22 15:09:55;;;;;;;50.73;32.13;;;;;;;;;;4990664;28;20484;-61
2022/01/22 15:12:21;;;;;;;52.93;32.10;;;;;;;;;;5007175;28;20577;-61
2022/01/22 15:14:48;;;;;;;54.07;33.67;;;;;;;;;;5006277;28;20485;-61
2022/01/22 15:17:27;;;;;;;50.07;31.93;;;;;;;;;;4991875;28;20038;-61
2022/01/22 15:19:55;;;;;;;51.37;33.33;;;;;;;;;;4991328;28;20034;-62
2022/01/22 15:22:21;;;;;;;51.33;32.73;;;;;;;;;;4991291;28;20099;-61
2022/01/22 15:24:52;;;;;;;52.07;32.30;;;;;;;;;;5010486;28;20046;-61
2022/01/22 15:27:19;;;;;;;52.13;31.97;;;;;;;;;;5038477;28;20085;-61
2022/01/22 15:30:00;;;;;;;49.50;31.47;;;;;;;;;;5016369;28;20042;-61
2022/01/22 15:35:02;;;;;;;51.88;32.78;;;;;;;;;;5011111;28;20091;-61
2022/01/22 15:37:28;;;;;;;50.73;32.30;;;;;;;;;;5023009;28;20030;-61
2022/01/22 15:39:54;;;;;;;53.07;34.00;;;;;;;;;;4998100;28;20124;-62
2022/01/22 15:42:20;;;;;;;52.83;33.17;;;;;;;;;;4999908;28;21072;-61
2022/01/22 15:44:46;;;;;;;55.63;31.57;;;;;;;;;;5006120;28;20034;-61
2022/01/22 15:47:13;;;;;;;51.07;34.00;;;;;;;;;;4985708;28;20050;-61
2022/01/22 15:49:41;;;;;;;52.17;33.43;;;;;;;;;;4991386;28;20436;-61
2022/01/22 15:52:07;;;;;;;53.37;33.33;;;;;;;;;;4996236;28;20042;-61
2022/01/22 15:54:33;;;;;;;47.93;31.00;;;;;;;;;;4992634;28;20085;-60
2022/01/22 15:56:59;;;;;;;52.30;32.93;;;;;;;;;;4989547;28;20038;-60
2022/01/22 15:59:26;;;;;;;51.07;32.50;;;;;;;;;;4990189;28;20126;-61
2022/01/22 16:01:52;;;;;;;59.03;33.43;;;;;;;;;;4980901;28;20039;-60
2022/01/22 16:04:18;;;;;;;52.03;33.10;;;;;;;;;;4994370;28;20481;-60
2022/01/22 16:06:58;;;;;;;49.83;31.50;;;;;;;;;;4989575;28;20034;-60
2022/01/22 16:09:26;;;;;;;50.07;33.23;;;;;;;;;;4988803;28;20057;-61
2022/01/22 16:11:52;;;;;;;53.90;33.07;;;;;;;;;;4989465;28;20117;-60
2022/01/22 16:14:18;;;;;;;54.27;32.77;;;;;;;;;;5005215;28;20038;-61
2022/01/22 16:16:46;;;;;;;55.47;34.57;;;;;;;;;;4991579;28;20066;-61
2022/01/22 16:19:13;;;;;;;47.97;31.57;;;;;;;;;;4987531;28;20520;-61
2022/01/22 16:21:39;;;;;;;55.03;32.40;;;;;;;;;;4992791;28;20034;-61
2022/01/22 16:24:06;;;;;;;51.93;31.43;;;;;;;;;;5020931;28;20030;-61
2022/01/22 16:26:32;;;;;;;47.67;32.43;;;;;;;;;;4993424;28;20066;-60
2022/01/22 16:28:59;;;;;;;50.80;30.57;;;;;;;;;;5018163;28;20048;-61
2022/01/22 16:31:26;;;;;;;50.63;31.13;;;;;;;;;;4992451;28;20035;-61
2022/01/22 16:33:52;;;;;;;51.47;32.67;;;;;;;;;;5000099;28;20479;-61
2022/01/22 16:36:19;;;;;;;53.57;32.60;;;;;;;;;;5007237;28;20042;-61
2022/01/22 16:38:46;;;;;;;50.10;31.53;;;;;;;;;;5003653;28;20030;-61
2022/01/22 16:41:12;;;;;;;48.97;32.40;;;;;;;;;;4986888;28;20038;-60